sensor_id;sensor_type;location;lat;lon;timestamp;P1;durP1;ratioP1;P2;durP2;ratioP2
33327;SDS011;19692;52.998;9.116;2023-07-13T00:01:57;7.73;;;5.90;;
33327;SDS011;19692;52.998;9.116;2023-07-13T00:04:23;7.90;;;5.80;;
33327;SDS011;19692;52.998;9.116;2023-07-13T00:06:50;10.40;;;6.23;;
33327;SDS011;19692;52.998;9.116;2023-07-13T00:09:17;7.77;;;5.93;;
33327;SDS011;19692;52.998;9.116;2023-07-13T00:11:44;8.47;;;6.17;;
33327;SDS011;19692;52.998;9.116;2023-07-13T00:14:12;8.40;;;6.10;;
33327;SDS011;19692;52.998;9.116;2023-07-13T00:16:40;7.43;;;6.00;;
33327;SDS011;19692;52.998;9.116;2023-07-13T00:19:08;7.53;;;6.80;;
33327;SDS011;19692;52.998;9.116;2023-07-13T00:21:35;9.23;;;6.83;;
33327;SDS011;19692;52.998;9.116;2023-07-13T00:24:01;8.93;;;6.43;;
33327;SDS011;19692;52.998;9.116;2023-07-13T00:26:27;9.77;;;6.90;;
33327;SDS011;19692;52.998;9.116;2023-07-13T00:28:54;9.70;;;7.17;;
33327;SDS011;19692;52.998;9.116;2023-07-13T00:31:20;10.50;;;6.50;;
33327;SDS011;19692;52.998;9.116;2023-07-13T00:33:46;9.33;;;6.60;;
33327;SDS011;19692;52.998;9.116;2023-07-13T00:36:11;11.77;;;7.07;;
33327;SDS011;19692;52.998;9.116;2023-07-13T00:38:38;12.27;;;7.37;;
33327;SDS011;19692;52.998;9.116;2023-07-13T00:41:03;10.47;;;7.27;;
33327;SDS011;19692;52.998;9.116;2023-07-13T00:43:29;7.50;;;6.80;;
33327;SDS011;19692;52.998;9.116;2023-07-13T00:48:22;8.80;;;7.17;;
33327;SDS011;19692;52.998;9.116;2023-07-13T00:50:53;9.77;;;7.20;;
33327;SDS011;19692;52.998;9.116;2023-07-13T00:53:21;11.90;;;7.30;;
33327;SDS011;19692;52.998;9.116;2023-07-13T00:55:49;9.03;;;6.70;;
33327;SDS011;19692;52.998;9.116;2023-07-13T00:58:16;7.57;;;6.63;;
33327;SDS011;19692;52.998;9.116;2023-07-13T01:00:43;9.53;;;6.83;;
33327;SDS011;19692;52.998;9.116;2023-07-13T01:03:10;7.57;;;6.87;;
33327;SDS011;19692;52.998;9.116;2023-07-13T01:05:36;8.17;;;6.53;;
33327;SDS011;19692;52.998;9.116;2023-07-13T01:08:02;8.47;;;6.47;;
33327;SDS011;19692;52.998;9.116;2023-07-13T01:10:30;9.77;;;6.80;;
33327;SDS011;19692;52.998;9.116;2023-07-13T01:13:03;8.70;;;7.13;;
33327;SDS011;19692;52.998;9.116;2023-07-13T01:15:42;7.73;;;6.37;;
33327;SDS011;19692;52.998;9.116;2023-07-13T01:18:13;8.13;;;7.00;;
33327;SDS011;19692;52.998;9.116;2023-07-13T01:20:50;11.10;;;6.97;;
33327;SDS011;19692;52.998;9.116;2023-07-13T01:23:21;11.30;;;7.30;;
33327;SDS011;19692;52.998;9.116;2023-07-13T01:25:47;9.10;;;6.50;;
33327;SDS011;19692;52.998;9.116;2023-07-13T01:28:13;10.13;;;6.87;;
33327;SDS011;19692;52.998;9.116;2023-07-13T01:30:41;9.30;;;7.07;;
33327;SDS011;19692;52.998;9.116;2023-07-13T01:33:10;11.10;;;7.50;;
33327;SDS011;19692;52.998;9.116;2023-07-13T01:35:38;9.47;;;6.83;;
33327;SDS011;19692;52.998;9.116;2023-07-13T01:38:04;8.83;;;7.53;;
33327;SDS011;19692;52.998;9.116;2023-07-13T01:40:31;8.07;;;6.87;;
33327;SDS011;19692;52.998;9.116;2023-07-13T01:42:58;7.43;;;6.30;;
33327;SDS011;19692;52.998;9.116;2023-07-13T01:45:24;7.80;;;7.00;;
33327;SDS011;19692;52.998;9.116;2023-07-13T01:47:49;8.43;;;6.73;;
33327;SDS011;19692;52.998;9.116;2023-07-13T01:50:15;8.93;;;7.60;;
33327;SDS011;19692;52.998;9.116;2023-07-13T01:52:41;7.97;;;7.17;;
33327;SDS011;19692;52.998;9.116;2023-07-13T01:55:07;9.17;;;8.00;;
33327;SDS011;19692;52.998;9.116;2023-07-13T01:57:33;8.67;;;7.07;;
33327;SDS011;19692;52.998;9.116;2023-07-13T01:59:59;12.70;;;8.17;;
33327;SDS011;19692;52.998;9.116;2023-07-13T02:02:29;9.97;;;7.33;;
33327;SDS011;19692;52.998;9.116;2023-07-13T02:04:56;10.83;;;7.90;;
33327;SDS011;19692;52.998;9.116;2023-07-13T02:07:21;12.80;;;8.13;;
33327;SDS011;19692;52.998;9.116;2023-07-13T02:09:47;13.67;;;8.60;;
33327;SDS011;19692;52.998;9.116;2023-07-13T02:12:13;13.93;;;7.67;;
33327;SDS011;19692;52.998;9.116;2023-07-13T02:14:38;15.33;;;8.30;;
33327;SDS011;19692;52.998;9.116;2023-07-13T02:17:05;11.53;;;8.33;;
33327;SDS011;19692;52.998;9.116;2023-07-13T02:19:31;11.97;;;8.87;;
33327;SDS011;19692;52.998;9.116;2023-07-13T02:21:59;12.60;;;8.93;;
33327;SDS011;19692;52.998;9.116;2023-07-13T02:24:25;10.87;;;8.53;;
33327;SDS011;19692;52.998;9.116;2023-07-13T02:26:51;12.30;;;8.60;;
33327;SDS011;19692;52.998;9.116;2023-07-13T02:29:17;11.43;;;8.93;;
33327;SDS011;19692;52.998;9.116;2023-07-13T02:31:43;17.67;;;8.70;;
33327;SDS011;19692;52.998;9.116;2023-07-13T02:34:08;18.73;;;10.17;;
33327;SDS011;19692;52.998;9.116;2023-07-13T02:36:34;15.23;;;9.07;;
33327;SDS011;19692;52.998;9.116;2023-07-13T02:39:00;12.67;;;8.63;;
33327;SDS011;19692;52.998;9.116;2023-07-13T02:41:30;12.00;;;9.57;;
33327;SDS011;19692;52.998;9.116;2023-07-13T02:43:57;14.17;;;9.57;;
33327;SDS011;19692;52.998;9.116;2023-07-13T02:46:32;16.73;;;9.70;;
33327;SDS011;19692;52.998;9.116;2023-07-13T02:49:00;16.37;;;9.70;;
33327;SDS011;19692;52.998;9.116;2023-07-13T02:51:26;12.13;;;10.03;;
33327;SDS011;19692;52.998;9.116;2023-07-13T02:53:52;16.33;;;10.70;;
33327;SDS011;19692;52.998;9.116;2023-07-13T02:56:25;14.63;;;10.17;;
33327;SDS011;19692;52.998;9.116;2023-07-13T02:58:53;12.90;;;10.20;;
33327;SDS011;19692;52.998;9.116;2023-07-13T03:01:19;17.83;;;11.03;;
33327;SDS011;19692;52.998;9.116;2023-07-13T03:03:46;14.23;;;10.00;;
33327;SDS011;19692;52.998;9.116;2023-07-13T03:06:14;17.63;;;10.10;;
33327;SDS011;19692;52.998;9.116;2023-07-13T03:08:41;18.60;;;11.23;;
33327;SDS011;19692;52.998;9.116;2023-07-13T03:11:12;18.73;;;10.57;;
33327;SDS011;19692;52.998;9.116;2023-07-13T03:13:41;19.60;;;10.47;;
33327;SDS011;19692;52.998;9.116;2023-07-13T03:16:08;17.30;;;10.20;;
33327;SDS011;19692;52.998;9.116;2023-07-13T03:18:35;20.17;;;11.20;;
33327;SDS011;19692;52.998;9.116;2023-07-13T03:21:01;15.47;;;10.13;;
33327;SDS011;19692;52.998;9.116;2023-07-13T03:23:27;17.63;;;10.10;;
33327;SDS011;19692;52.998;9.116;2023-07-13T03:26:10;21.00;;;11.83;;
33327;SDS011;19692;52.998;9.116;2023-07-13T03:28:44;22.50;;;12.17;;
33327;SDS011;19692;52.998;9.116;2023-07-13T03:31:12;23.17;;;11.30;;
33327;SDS011;19692;52.998;9.116;2023-07-13T03:33:44;23.83;;;11.97;;
33327;SDS011;19692;52.998;9.116;2023-07-13T03:36:12;24.27;;;11.00;;
33327;SDS011;19692;52.998;9.116;2023-07-13T03:38:44;27.50;;;12.47;;
33327;SDS011;19692;52.998;9.116;2023-07-13T03:41:15;18.97;;;11.70;;
33327;SDS011;19692;52.998;9.116;2023-07-13T03:43:42;25.30;;;11.13;;
33327;SDS011;19692;52.998;9.116;2023-07-13T03:46:08;20.03;;;10.43;;
33327;SDS011;19692;52.998;9.116;2023-07-13T03:48:34;25.57;;;10.60;;
33327;SDS011;19692;52.998;9.116;2023-07-13T03:51:00;19.77;;;9.67;;
33327;SDS011;19692;52.998;9.116;2023-07-13T03:53:26;20.70;;;9.50;;
33327;SDS011;19692;52.998;9.116;2023-07-13T03:55:52;21.23;;;9.77;;
33327;SDS011;19692;52.998;9.116;2023-07-13T03:58:28;16.87;;;9.33;;
33327;SDS011;19692;52.998;9.116;2023-07-13T04:01:00;21.33;;;8.67;;
33327;SDS011;19692;52.998;9.116;2023-07-13T04:03:28;18.17;;;8.47;;
33327;SDS011;19692;52.998;9.116;2023-07-13T04:05:57;18.50;;;9.10;;
33327;SDS011;19692;52.998;9.116;2023-07-13T04:08:29;19.30;;;8.70;;
33327;SDS011;19692;52.998;9.116;2023-07-13T04:10:59;18.50;;;8.23;;
33327;SDS011;19692;52.998;9.116;2023-07-13T04:13:25;21.63;;;8.03;;
33327;SDS011;19692;52.998;9.116;2023-07-13T04:15:51;15.23;;;6.73;;
33327;SDS011;19692;52.998;9.116;2023-07-13T04:18:18;20.80;;;7.40;;
33327;SDS011;19692;52.998;9.116;2023-07-13T04:20:44;19.53;;;7.20;;
33327;SDS011;19692;52.998;9.116;2023-07-13T04:23:14;20.50;;;6.33;;
33327;SDS011;19692;52.998;9.116;2023-07-13T04:25:44;18.57;;;6.37;;
33327;SDS011;19692;52.998;9.116;2023-07-13T04:28:11;17.27;;;6.23;;
33327;SDS011;19692;52.998;9.116;2023-07-13T04:30:37;20.33;;;5.60;;
33327;SDS011;19692;52.998;9.116;2023-07-13T04:33:03;14.53;;;5.43;;
33327;SDS011;19692;52.998;9.116;2023-07-13T04:35:29;14.43;;;5.03;;
33327;SDS011;19692;52.998;9.116;2023-07-13T04:37:56;15.07;;;5.60;;
33327;SDS011;19692;52.998;9.116;2023-07-13T04:40:22;16.50;;;4.63;;
33327;SDS011;19692;52.998;9.116;2023-07-13T04:42:48;12.10;;;4.17;;
33327;SDS011;19692;52.998;9.116;2023-07-13T04:45:14;13.90;;;4.63;;
33327;SDS011;19692;52.998;9.116;2023-07-13T04:47:40;16.80;;;5.23;;
33327;SDS011;19692;52.998;9.116;2023-07-13T04:50:07;18.20;;;5.07;;
33327;SDS011;19692;52.998;9.116;2023-07-13T04:52:35;17.83;;;5.13;;
33327;SDS011;19692;52.998;9.116;2023-07-13T04:55:02;14.30;;;4.70;;
33327;SDS011;19692;52.998;9.116;2023-07-13T04:57:28;14.97;;;4.37;;
33327;SDS011;19692;52.998;9.116;2023-07-13T04:59:54;22.33;;;5.03;;
33327;SDS011;19692;52.998;9.116;2023-07-13T05:02:20;12.13;;;4.30;;
33327;SDS011;19692;52.998;9.116;2023-07-13T05:04:47;11.93;;;4.07;;
33327;SDS011;19692;52.998;9.116;2023-07-13T05:07:13;12.27;;;4.13;;
33327;SDS011;19692;52.998;9.116;2023-07-13T05:09:39;17.70;;;4.33;;
33327;SDS011;19692;52.998;9.116;2023-07-13T05:12:05;15.03;;;5.00;;
33327;SDS011;19692;52.998;9.116;2023-07-13T05:14:34;15.10;;;4.50;;
33327;SDS011;19692;52.998;9.116;2023-07-13T05:17:00;13.50;;;4.30;;
33327;SDS011;19692;52.998;9.116;2023-07-13T05:19:28;12.17;;;4.67;;
33327;SDS011;19692;52.998;9.116;2023-07-13T05:21:57;12.37;;;4.13;;
33327;SDS011;19692;52.998;9.116;2023-07-13T05:24:25;12.07;;;4.00;;
33327;SDS011;19692;52.998;9.116;2023-07-13T05:26:51;13.50;;;4.43;;
33327;SDS011;19692;52.998;9.116;2023-07-13T05:29:18;15.77;;;4.70;;
33327;SDS011;19692;52.998;9.116;2023-07-13T05:31:46;14.80;;;4.20;;
33327;SDS011;19692;52.998;9.116;2023-07-13T05:34:12;17.37;;;4.83;;
33327;SDS011;19692;52.998;9.116;2023-07-13T05:36:37;18.47;;;4.30;;
33327;SDS011;19692;52.998;9.116;2023-07-13T05:39:03;13.77;;;4.40;;
33327;SDS011;19692;52.998;9.116;2023-07-13T05:41:29;11.90;;;4.53;;
33327;SDS011;19692;52.998;9.116;2023-07-13T05:43:58;11.23;;;3.60;;
33327;SDS011;19692;52.998;9.116;2023-07-13T05:46:47;16.40;;;4.70;;
33327;SDS011;19692;52.998;9.116;2023-07-13T05:49:29;11.77;;;4.50;;
33327;SDS011;19692;52.998;9.116;2023-07-13T05:52:00;10.47;;;3.33;;
33327;SDS011;19692;52.998;9.116;2023-07-13T05:55:01;16.47;;;5.10;;
33327;SDS011;19692;52.998;9.116;2023-07-13T05:57:46;10.63;;;4.17;;
33327;SDS011;19692;52.998;9.116;2023-07-13T06:00:26;11.20;;;4.57;;
33327;SDS011;19692;52.998;9.116;2023-07-13T06:03:06;14.37;;;4.60;;
33327;SDS011;19692;52.998;9.116;2023-07-13T06:05:40;9.43;;;3.90;;
33327;SDS011;19692;52.998;9.116;2023-07-13T06:08:15;8.57;;;4.13;;
33327;SDS011;19692;52.998;9.116;2023-07-13T06:10:51;13.07;;;4.57;;
33327;SDS011;19692;52.998;9.116;2023-07-13T06:16:35;13.50;;;4.50;;
33327;SDS011;19692;52.998;9.116;2023-07-13T06:19:12;10.20;;;4.20;;
33327;SDS011;19692;52.998;9.116;2023-07-13T06:21:46;9.37;;;4.20;;
33327;SDS011;19692;52.998;9.116;2023-07-13T06:24:12;9.23;;;3.83;;
33327;SDS011;19692;52.998;9.116;2023-07-13T06:26:37;12.80;;;4.07;;
33327;SDS011;19692;52.998;9.116;2023-07-13T06:29:03;14.13;;;4.73;;
33327;SDS011;19692;52.998;9.116;2023-07-13T06:31:29;12.37;;;4.30;;
33327;SDS011;19692;52.998;9.116;2023-07-13T06:33:54;13.07;;;4.13;;
33327;SDS011;19692;52.998;9.116;2023-07-13T06:36:20;13.43;;;4.13;;
33327;SDS011;19692;52.998;9.116;2023-07-13T06:38:46;8.83;;;3.87;;
33327;SDS011;19692;52.998;9.116;2023-07-13T06:41:12;12.50;;;4.30;;
33327;SDS011;19692;52.998;9.116;2023-07-13T06:43:37;10.17;;;3.73;;
33327;SDS011;19692;52.998;9.116;2023-07-13T06:46:03;11.53;;;4.70;;
33327;SDS011;19692;52.998;9.116;2023-07-13T06:48:29;13.23;;;4.50;;
33327;SDS011;19692;52.998;9.116;2023-07-13T06:50:55;10.03;;;4.30;;
33327;SDS011;19692;52.998;9.116;2023-07-13T06:53:21;11.20;;;4.03;;
33327;SDS011;19692;52.998;9.116;2023-07-13T06:55:47;12.33;;;4.80;;
33327;SDS011;19692;52.998;9.116;2023-07-13T06:58:14;9.87;;;4.23;;
33327;SDS011;19692;52.998;9.116;2023-07-13T07:00:41;12.50;;;4.83;;
33327;SDS011;19692;52.998;9.116;2023-07-13T07:03:07;11.63;;;4.50;;
33327;SDS011;19692;52.998;9.116;2023-07-13T07:05:32;11.03;;;4.60;;
33327;SDS011;19692;52.998;9.116;2023-07-13T07:07:58;10.00;;;3.97;;
33327;SDS011;19692;52.998;9.116;2023-07-13T07:10:25;9.50;;;4.47;;
33327;SDS011;19692;52.998;9.116;2023-07-13T07:12:51;14.07;;;4.13;;
33327;SDS011;19692;52.998;9.116;2023-07-13T07:15:17;16.53;;;4.70;;
33327;SDS011;19692;52.998;9.116;2023-07-13T07:17:43;11.57;;;5.00;;
33327;SDS011;19692;52.998;9.116;2023-07-13T07:20:09;13.53;;;4.53;;
33327;SDS011;19692;52.998;9.116;2023-07-13T07:22:36;14.57;;;4.47;;
33327;SDS011;19692;52.998;9.116;2023-07-13T07:25:01;12.83;;;4.40;;
33327;SDS011;19692;52.998;9.116;2023-07-13T07:27:27;15.87;;;5.07;;
33327;SDS011;19692;52.998;9.116;2023-07-13T07:29:53;8.97;;;4.10;;
33327;SDS011;19692;52.998;9.116;2023-07-13T07:32:19;10.07;;;4.37;;
33327;SDS011;19692;52.998;9.116;2023-07-13T07:34:45;13.17;;;4.30;;
33327;SDS011;19692;52.998;9.116;2023-07-13T07:37:12;14.67;;;4.87;;
33327;SDS011;19692;52.998;9.116;2023-07-13T07:39:38;10.17;;;3.90;;
33327;SDS011;19692;52.998;9.116;2023-07-13T07:42:04;10.63;;;4.40;;
33327;SDS011;19692;52.998;9.116;2023-07-13T07:44:31;9.50;;;4.07;;
33327;SDS011;19692;52.998;9.116;2023-07-13T07:46:57;12.07;;;4.20;;
33327;SDS011;19692;52.998;9.116;2023-07-13T07:49:23;12.03;;;4.33;;
33327;SDS011;19692;52.998;9.116;2023-07-13T07:51:49;9.40;;;4.40;;
33327;SDS011;19692;52.998;9.116;2023-07-13T07:54:15;10.43;;;4.10;;
33327;SDS011;19692;52.998;9.116;2023-07-13T07:56:41;12.80;;;4.40;;
33327;SDS011;19692;52.998;9.116;2023-07-13T07:59:07;11.27;;;4.10;;
33327;SDS011;19692;52.998;9.116;2023-07-13T08:01:33;10.67;;;4.03;;
33327;SDS011;19692;52.998;9.116;2023-07-13T08:03:58;13.47;;;4.60;;
33327;SDS011;19692;52.998;9.116;2023-07-13T08:06:24;9.87;;;4.03;;
33327;SDS011;19692;52.998;9.116;2023-07-13T08:08:50;9.77;;;3.73;;
33327;SDS011;19692;52.998;9.116;2023-07-13T08:11:16;11.80;;;4.10;;
33327;SDS011;19692;52.998;9.116;2023-07-13T08:13:43;8.63;;;3.93;;
33327;SDS011;19692;52.998;9.116;2023-07-13T08:16:08;11.47;;;4.47;;
33327;SDS011;19692;52.998;9.116;2023-07-13T08:18:34;10.00;;;3.53;;
33327;SDS011;19692;52.998;9.116;2023-07-13T08:21:04;12.67;;;4.67;;
33327;SDS011;19692;52.998;9.116;2023-07-13T08:23:32;12.77;;;3.70;;
33327;SDS011;19692;52.998;9.116;2023-07-13T08:25:58;10.00;;;4.47;;
33327;SDS011;19692;52.998;9.116;2023-07-13T08:28:26;18.20;;;5.20;;
33327;SDS011;19692;52.998;9.116;2023-07-13T08:30:52;12.47;;;4.30;;
33327;SDS011;19692;52.998;9.116;2023-07-13T08:33:18;13.60;;;4.80;;
33327;SDS011;19692;52.998;9.116;2023-07-13T08:35:46;11.30;;;4.57;;
33327;SDS011;19692;52.998;9.116;2023-07-13T08:38:13;6.93;;;3.93;;
33327;SDS011;19692;52.998;9.116;2023-07-13T08:40:39;12.37;;;5.40;;
33327;SDS011;19692;52.998;9.116;2023-07-13T08:43:09;12.10;;;4.60;;
33327;SDS011;19692;52.998;9.116;2023-07-13T08:45:52;10.83;;;4.63;;
33327;SDS011;19692;52.998;9.116;2023-07-13T08:48:35;9.77;;;4.63;;
33327;SDS011;19692;52.998;9.116;2023-07-13T08:54:18;6.97;;;4.47;;
33327;SDS011;19692;52.998;9.116;2023-07-13T08:56:52;8.50;;;4.30;;
33327;SDS011;19692;52.998;9.116;2023-07-13T08:59:21;10.37;;;4.07;;
33327;SDS011;19692;52.998;9.116;2023-07-13T09:02:09;9.17;;;4.10;;
33327;SDS011;19692;52.998;9.116;2023-07-13T09:10:27;7.90;;;4.20;;
33327;SDS011;19692;52.998;9.116;2023-07-13T09:13:06;9.17;;;3.73;;
33327;SDS011;19692;52.998;9.116;2023-07-13T09:15:48;8.00;;;3.97;;
33327;SDS011;19692;52.998;9.116;2023-07-13T09:18:18;6.43;;;3.60;;
33327;SDS011;19692;52.998;9.116;2023-07-13T09:21:05;6.33;;;3.90;;
33327;SDS011;19692;52.998;9.116;2023-07-13T09:23:40;8.40;;;4.20;;
33327;SDS011;19692;52.998;9.116;2023-07-13T09:26:10;9.23;;;4.40;;
33327;SDS011;19692;52.998;9.116;2023-07-13T09:28:44;10.17;;;3.60;;
33327;SDS011;19692;52.998;9.116;2023-07-13T09:31:29;11.43;;;4.23;;
33327;SDS011;19692;52.998;9.116;2023-07-13T09:34:04;7.80;;;4.00;;
33327;SDS011;19692;52.998;9.116;2023-07-13T09:36:35;8.00;;;3.63;;
33327;SDS011;19692;52.998;9.116;2023-07-13T09:41:50;5.97;;;3.70;;
33327;SDS011;19692;52.998;9.116;2023-07-13T09:44:38;9.13;;;4.57;;
33327;SDS011;19692;52.998;9.116;2023-07-13T09:47:22;5.23;;;2.97;;
33327;SDS011;19692;52.998;9.116;2023-07-13T09:50:01;8.43;;;3.17;;
33327;SDS011;19692;52.998;9.116;2023-07-13T09:52:41;7.93;;;3.33;;
33327;SDS011;19692;52.998;9.116;2023-07-13T09:57:57;6.23;;;3.40;;
33327;SDS011;19692;52.998;9.116;2023-07-13T10:00:25;4.87;;;3.13;;
33327;SDS011;19692;52.998;9.116;2023-07-13T10:03:01;4.67;;;3.00;;
33327;SDS011;19692;52.998;9.116;2023-07-13T10:05:42;4.10;;;2.90;;
33327;SDS011;19692;52.998;9.116;2023-07-13T10:08:24;7.10;;;3.30;;
33327;SDS011;19692;52.998;9.116;2023-07-13T10:11:00;5.03;;;3.07;;
33327;SDS011;19692;52.998;9.116;2023-07-13T10:13:42;5.20;;;2.90;;
33327;SDS011;19692;52.998;9.116;2023-07-13T10:16:30;6.17;;;3.40;;
33327;SDS011;19692;52.998;9.116;2023-07-13T10:18:59;6.07;;;3.07;;
33327;SDS011;19692;52.998;9.116;2023-07-13T10:21:37;8.63;;;3.10;;
33327;SDS011;19692;52.998;9.116;2023-07-13T10:24:14;5.03;;;2.80;;
33327;SDS011;19692;52.998;9.116;2023-07-13T10:26:50;5.67;;;3.00;;
33327;SDS011;19692;52.998;9.116;2023-07-13T10:29:24;5.90;;;3.53;;
33327;SDS011;19692;52.998;9.116;2023-07-13T10:31:52;7.10;;;2.93;;
33327;SDS011;19692;52.998;9.116;2023-07-13T10:34:18;7.27;;;3.00;;
33327;SDS011;19692;52.998;9.116;2023-07-13T10:36:45;4.77;;;2.93;;
33327;SDS011;19692;52.998;9.116;2023-07-13T10:39:23;6.90;;;3.17;;
33327;SDS011;19692;52.998;9.116;2023-07-13T10:41:59;6.67;;;3.03;;
33327;SDS011;19692;52.998;9.116;2023-07-13T10:44:31;4.50;;;3.07;;
33327;SDS011;19692;52.998;9.116;2023-07-13T10:46:58;7.27;;;3.90;;
33327;SDS011;19692;52.998;9.116;2023-07-13T10:49:43;7.73;;;3.13;;
33327;SDS011;19692;52.998;9.116;2023-07-13T10:57:52;5.90;;;3.00;;
33327;SDS011;19692;52.998;9.116;2023-07-13T11:01:21;4.40;;;3.30;;
33327;SDS011;19692;52.998;9.116;2023-07-13T11:03:49;4.33;;;3.20;;
33327;SDS011;19692;52.998;9.116;2023-07-13T11:10:30;5.27;;;3.00;;
33327;SDS011;19692;52.998;9.116;2023-07-13T11:24:51;5.80;;;3.27;;
33327;SDS011;19692;52.998;9.116;2023-07-13T11:27:22;9.20;;;2.80;;
33327;SDS011;19692;52.998;9.116;2023-07-13T11:32:49;8.50;;;3.70;;
33327;SDS011;19692;52.998;9.116;2023-07-13T11:38:38;7.17;;;4.07;;
33327;SDS011;19692;52.998;9.116;2023-07-13T11:43:45;6.10;;;3.87;;
33327;SDS011;19692;52.998;9.116;2023-07-13T11:46:25;5.53;;;3.73;;
33327;SDS011;19692;52.998;9.116;2023-07-13T11:48:53;4.03;;;3.40;;
33327;SDS011;19692;52.998;9.116;2023-07-13T11:51:23;3.73;;;2.47;;
33327;SDS011;19692;52.998;9.116;2023-07-13T11:53:55;3.70;;;2.60;;
33327;SDS011;19692;52.998;9.116;2023-07-13T11:56:24;6.60;;;3.17;;
33327;SDS011;19692;52.998;9.116;2023-07-13T11:58:51;6.70;;;3.17;;
33327;SDS011;19692;52.998;9.116;2023-07-13T12:01:21;8.13;;;4.03;;
33327;SDS011;19692;52.998;9.116;2023-07-13T12:03:51;6.17;;;4.60;;
33327;SDS011;19692;52.998;9.116;2023-07-13T12:06:24;5.47;;;4.07;;
33327;SDS011;19692;52.998;9.116;2023-07-13T12:08:56;4.10;;;3.17;;
33327;SDS011;19692;52.998;9.116;2023-07-13T12:11:27;4.73;;;2.63;;
33327;SDS011;19692;52.998;9.116;2023-07-13T12:13:53;4.90;;;2.70;;
33327;SDS011;19692;52.998;9.116;2023-07-13T12:16:28;4.63;;;2.90;;
33327;SDS011;19692;52.998;9.116;2023-07-13T12:18:55;7.37;;;2.90;;
33327;SDS011;19692;52.998;9.116;2023-07-13T12:21:24;3.90;;;3.10;;
33327;SDS011;19692;52.998;9.116;2023-07-13T12:24:03;4.77;;;2.97;;
33327;SDS011;19692;52.998;9.116;2023-07-13T12:26:30;3.83;;;3.30;;
33327;SDS011;19692;52.998;9.116;2023-07-13T12:28:58;4.47;;;2.57;;
33327;SDS011;19692;52.998;9.116;2023-07-13T12:31:31;3.10;;;2.80;;
33327;SDS011;19692;52.998;9.116;2023-07-13T12:34:02;3.47;;;2.57;;
33327;SDS011;19692;52.998;9.116;2023-07-13T12:36:49;3.57;;;2.60;;
33327;SDS011;19692;52.998;9.116;2023-07-13T12:39:33;4.13;;;2.80;;
33327;SDS011;19692;52.998;9.116;2023-07-13T12:42:13;2.80;;;2.57;;
33327;SDS011;19692;52.998;9.116;2023-07-13T12:44:52;3.77;;;2.57;;
33327;SDS011;19692;52.998;9.116;2023-07-13T12:47:43;2.77;;;2.50;;
33327;SDS011;19692;52.998;9.116;2023-07-13T12:50:15;2.73;;;2.50;;
33327;SDS011;19692;52.998;9.116;2023-07-13T12:52:44;3.40;;;2.27;;
33327;SDS011;19692;52.998;9.116;2023-07-13T12:55:17;3.03;;;2.60;;
33327;SDS011;19692;52.998;9.116;2023-07-13T12:57:47;4.57;;;2.67;;
33327;SDS011;19692;52.998;9.116;2023-07-13T13:00:21;3.03;;;2.30;;
33327;SDS011;19692;52.998;9.116;2023-07-13T13:03:04;3.27;;;2.33;;
33327;SDS011;19692;52.998;9.116;2023-07-13T13:05:39;2.90;;;2.20;;
33327;SDS011;19692;52.998;9.116;2023-07-13T13:08:04;2.57;;;2.10;;
33327;SDS011;19692;52.998;9.116;2023-07-13T13:10:30;2.60;;;2.30;;
33327;SDS011;19692;52.998;9.116;2023-07-13T13:12:56;2.77;;;2.17;;
33327;SDS011;19692;52.998;9.116;2023-07-13T13:15:22;3.50;;;2.27;;
33327;SDS011;19692;52.998;9.116;2023-07-13T13:17:48;3.33;;;2.20;;
33327;SDS011;19692;52.998;9.116;2023-07-13T13:20:15;2.27;;;1.90;;
33327;SDS011;19692;52.998;9.116;2023-07-13T13:22:45;2.10;;;1.90;;
33327;SDS011;19692;52.998;9.116;2023-07-13T13:25:11;2.97;;;2.10;;
33327;SDS011;19692;52.998;9.116;2023-07-13T13:27:39;3.97;;;2.13;;
33327;SDS011;19692;52.998;9.116;2023-07-13T13:30:13;2.33;;;2.10;;
33327;SDS011;19692;52.998;9.116;2023-07-13T13:32:43;2.10;;;1.90;;
33327;SDS011;19692;52.998;9.116;2023-07-13T13:35:18;2.30;;;2.00;;
33327;SDS011;19692;52.998;9.116;2023-07-13T13:37:46;2.53;;;2.17;;
33327;SDS011;19692;52.998;9.116;2023-07-13T13:40:16;2.33;;;1.87;;
33327;SDS011;19692;52.998;9.116;2023-07-13T13:42:48;2.23;;;1.73;;
33327;SDS011;19692;52.998;9.116;2023-07-13T13:45:14;3.03;;;1.70;;
33327;SDS011;19692;52.998;9.116;2023-07-13T13:47:42;2.83;;;1.90;;
33327;SDS011;19692;52.998;9.116;2023-07-13T13:50:13;2.40;;;2.00;;
33327;SDS011;19692;52.998;9.116;2023-07-13T13:52:47;2.13;;;1.70;;
33327;SDS011;19692;52.998;9.116;2023-07-13T13:57:47;3.60;;;1.97;;
33327;SDS011;19692;52.998;9.116;2023-07-13T14:00:14;2.30;;;1.90;;
33327;SDS011;19692;52.998;9.116;2023-07-13T14:02:42;2.63;;;1.80;;
33327;SDS011;19692;52.998;9.116;2023-07-13T14:05:13;2.57;;;1.90;;
33327;SDS011;19692;52.998;9.116;2023-07-13T14:07:41;2.70;;;1.80;;
33327;SDS011;19692;52.998;9.116;2023-07-13T14:10:14;2.07;;;1.83;;
33327;SDS011;19692;52.998;9.116;2023-07-13T14:12:45;2.10;;;1.90;;
33327;SDS011;19692;52.998;9.116;2023-07-13T14:17:55;2.80;;;2.00;;
33327;SDS011;19692;52.998;9.116;2023-07-13T14:20:23;3.03;;;1.97;;
33327;SDS011;19692;52.998;9.116;2023-07-13T14:22:51;2.73;;;2.10;;
33327;SDS011;19692;52.998;9.116;2023-07-13T14:25:18;3.83;;;2.00;;
33327;SDS011;19692;52.998;9.116;2023-07-13T14:27:45;3.50;;;2.50;;
33327;SDS011;19692;52.998;9.116;2023-07-13T14:30:16;3.60;;;2.50;;
33327;SDS011;19692;52.998;9.116;2023-07-13T14:32:45;3.47;;;2.70;;
33327;SDS011;19692;52.998;9.116;2023-07-13T14:35:12;2.97;;;2.67;;
33327;SDS011;19692;52.998;9.116;2023-07-13T14:37:45;3.77;;;2.70;;
33327;SDS011;19692;52.998;9.116;2023-07-13T14:43:04;6.23;;;3.80;;
33327;SDS011;19692;52.998;9.116;2023-07-13T14:45:29;7.03;;;4.30;;
33327;SDS011;19692;52.998;9.116;2023-07-13T14:47:56;6.50;;;4.37;;
33327;SDS011;19692;52.998;9.116;2023-07-13T14:50:26;6.17;;;4.37;;
33327;SDS011;19692;52.998;9.116;2023-07-13T14:52:57;6.90;;;4.53;;
33327;SDS011;19692;52.998;9.116;2023-07-13T14:55:23;5.43;;;4.00;;
33327;SDS011;19692;52.998;9.116;2023-07-13T14:57:51;7.07;;;4.17;;
33327;SDS011;19692;52.998;9.116;2023-07-13T15:00:18;7.73;;;4.17;;
33327;SDS011;19692;52.998;9.116;2023-07-13T15:02:47;6.57;;;3.97;;
33327;SDS011;19692;52.998;9.116;2023-07-13T15:05:17;7.20;;;4.17;;
33327;SDS011;19692;52.998;9.116;2023-07-13T15:07:48;5.30;;;3.77;;
33327;SDS011;19692;52.998;9.116;2023-07-13T15:12:47;5.83;;;4.03;;
33327;SDS011;19692;52.998;9.116;2023-07-13T15:15:15;6.17;;;3.63;;
33327;SDS011;19692;52.998;9.116;2023-07-13T15:17:41;6.77;;;5.00;;
33327;SDS011;19692;52.998;9.116;2023-07-13T15:20:21;4.40;;;3.33;;
33327;SDS011;19692;52.998;9.116;2023-07-13T15:22:53;4.90;;;3.13;;
33327;SDS011;19692;52.998;9.116;2023-07-13T15:25:22;5.23;;;3.50;;
33327;SDS011;19692;52.998;9.116;2023-07-13T15:27:51;8.07;;;3.93;;
33327;SDS011;19692;52.998;9.116;2023-07-13T15:30:18;4.20;;;3.00;;
33327;SDS011;19692;52.998;9.116;2023-07-13T15:32:44;4.40;;;2.30;;
33327;SDS011;19692;52.998;9.116;2023-07-13T15:35:18;3.27;;;2.40;;
33327;SDS011;19692;52.998;9.116;2023-07-13T15:37:47;2.87;;;2.40;;
33327;SDS011;19692;52.998;9.116;2023-07-13T15:40:15;3.77;;;2.50;;
33327;SDS011;19692;52.998;9.116;2023-07-13T15:42:42;3.33;;;2.30;;
33327;SDS011;19692;52.998;9.116;2023-07-13T15:47:46;4.40;;;2.43;;
33327;SDS011;19692;52.998;9.116;2023-07-13T15:50:15;4.03;;;2.67;;
33327;SDS011;19692;52.998;9.116;2023-07-13T15:52:52;2.50;;;2.30;;
33327;SDS011;19692;52.998;9.116;2023-07-13T15:55:20;2.53;;;2.00;;
33327;SDS011;19692;52.998;9.116;2023-07-13T15:57:47;2.27;;;1.70;;
33327;SDS011;19692;52.998;9.116;2023-07-13T16:02:48;1.30;;;1.20;;